createdAt,value
2023-03-31T00:01:13.038Z,2.03
2023-03-31T00:03:44.581Z,2.45
2023-03-31T00:06:17.881Z,2.20
2023-03-31T00:08:45.080Z,2.42
2023-03-31T00:11:11.978Z,2.10
2023-03-31T00:13:41.162Z,2.00
2023-03-31T00:16:13.228Z,2.20
2023-03-31T00:18:47.683Z,1.85
2023-03-31T00:21:29.495Z,2.15
2023-03-31T00:23:58.702Z,2.65
2023-03-31T00:26:26.289Z,2.60
2023-03-31T00:28:53.772Z,2.25
2023-03-31T00:31:21.964Z,2.42
2023-03-31T00:33:49.415Z,2.22
2023-03-31T00:36:21.311Z,2.17
2023-03-31T00:38:48.914Z,2.25
2023-03-31T00:41:16.045Z,2.28
2023-03-31T00:44:04.725Z,2.30
2023-03-31T00:46:34.785Z,1.80
2023-03-31T00:49:01.609Z,1.92
2023-03-31T00:51:32.316Z,3.35
2023-03-31T00:54:05.465Z,2.70
2023-03-31T00:56:39.887Z,1.90
2023-03-31T00:59:11.257Z,2.15
2023-03-31T01:01:43.467Z,3.42
2023-03-31T01:04:14.068Z,2.53
2023-03-31T01:06:50.705Z,2.88
2023-03-31T01:09:17.257Z,2.10
2023-03-31T01:11:46.499Z,2.30
2023-03-31T01:14:16.374Z,2.50
2023-03-31T01:16:44.318Z,2.65
2023-03-31T01:19:24.761Z,2.20
2023-03-31T01:22:28.016Z,2.55
2023-03-31T01:25:26.297Z,2.60
2023-03-31T01:27:58.874Z,2.20
2023-03-31T01:30:37.585Z,2.85
2023-03-31T01:33:39.308Z,2.22
2023-03-31T01:36:30.600Z,2.85
2023-03-31T01:39:02.966Z,2.63
2023-03-31T01:41:41.820Z,2.40
2023-03-31T01:44:16.628Z,2.50
2023-03-31T01:47:07.042Z,2.45
2023-03-31T01:49:43.450Z,2.88
2023-03-31T01:52:21.564Z,2.60
2023-03-31T01:54:52.830Z,1.90
2023-03-31T01:57:19.235Z,2.20
2023-03-31T02:00:11.628Z,1.85
2023-03-31T02:03:01.589Z,1.83
2023-03-31T02:05:35.300Z,3.13
2023-03-31T02:08:04.533Z,2.50
2023-03-31T02:10:33.927Z,2.78
2023-03-31T02:13:02.462Z,2.38
2023-03-31T02:15:36.458Z,2.50
2023-03-31T02:18:06.227Z,2.47
2023-03-31T02:20:33.755Z,2.42
2023-03-31T02:23:00.782Z,2.20
2023-03-31T02:25:38.535Z,3.20
2023-03-31T02:28:12.827Z,2.47
2023-03-31T02:30:48.961Z,2.30
2023-03-31T02:33:19.425Z,2.50
2023-03-31T02:35:46.147Z,3.45
2023-03-31T02:38:12.720Z,2.40
2023-03-31T02:40:39.199Z,2.88
2023-03-31T02:43:05.846Z,2.65
2023-03-31T02:45:42.976Z,2.67
2023-03-31T02:48:23.329Z,2.63
2023-03-31T02:51:08.507Z,2.95
2023-03-31T02:54:06.191Z,3.13
2023-03-31T02:56:51.354Z,2.72
2023-03-31T02:59:39.500Z,2.85
2023-03-31T03:02:22.218Z,3.00
2023-03-31T03:05:21.547Z,2.10
2023-03-31T03:08:37.645Z,2.83
2023-03-31T03:11:11.660Z,2.78
2023-03-31T03:13:56.411Z,2.45
2023-03-31T03:16:25.812Z,2.20
2023-03-31T03:19:01.324Z,2.38
2023-03-31T03:21:28.862Z,2.05
2023-03-31T03:23:55.517Z,2.50
2023-03-31T03:26:28.126Z,2.53
2023-03-31T03:28:56.609Z,2.63
2023-03-31T03:31:24.216Z,1.98
2023-03-31T03:33:55.884Z,2.08
2023-03-31T03:36:25.656Z,2.03
2023-03-31T03:38:52.929Z,2.13
2023-03-31T03:41:19.462Z,2.28
2023-03-31T03:43:46.024Z,2.30
2023-03-31T03:46:13.066Z,2.22
2023-03-31T03:48:39.509Z,2.40
2023-03-31T03:51:06.524Z,2.15
2023-03-31T03:53:33.129Z,2.00
2023-03-31T03:55:59.626Z,3.05
2023-03-31T03:58:26.343Z,2.10
2023-03-31T04:00:57.111Z,2.20
2023-03-31T04:03:27.098Z,2.45
2023-03-31T04:05:55.488Z,2.85
2023-03-31T04:08:22.176Z,2.17
2023-03-31T04:10:49.870Z,2.28
2023-03-31T04:13:17.644Z,2.22
2023-03-31T04:15:44.518Z,1.75
2023-03-31T04:18:25.035Z,1.60
2023-03-31T04:21:04.201Z,1.70
2023-03-31T04:23:35.252Z,2.10
2023-03-31T04:26:02.786Z,1.75
2023-03-31T04:28:34.809Z,2.22
2023-03-31T04:31:02.784Z,1.77
2023-03-31T04:33:29.748Z,1.95
2023-03-31T04:35:56.407Z,1.98
2023-03-31T04:38:27.397Z,1.70
2023-03-31T04:40:58.060Z,1.33
2023-03-31T04:43:26.060Z,1.75
2023-03-31T04:45:59.977Z,1.67
2023-03-31T04:48:26.490Z,1.90
2023-03-31T04:50:55.638Z,1.80
2023-03-31T04:53:27.407Z,2.25
2023-03-31T04:56:05.407Z,2.08
2023-03-31T04:58:32.309Z,1.65
2023-03-31T05:00:59.000Z,2.50
2023-03-31T05:03:28.446Z,1.58
2023-03-31T05:06:09.076Z,2.13
2023-03-31T05:08:36.204Z,2.10
2023-03-31T05:11:04.075Z,2.00
2023-03-31T05:13:30.626Z,1.83
2023-03-31T05:15:57.150Z,2.10
2023-03-31T05:18:26.528Z,2.10
2023-03-31T05:20:55.516Z,2.08
2023-03-31T05:23:22.081Z,2.13
2023-03-31T05:25:48.518Z,2.30
2023-03-31T05:28:14.937Z,1.77
2023-03-31T05:30:41.401Z,2.88
2023-03-31T05:33:07.984Z,1.58
2023-03-31T05:35:35.043Z,1.58
2023-03-31T05:38:01.572Z,2.20
2023-03-31T05:40:28.068Z,1.60
2023-03-31T05:42:55.169Z,2.33
2023-03-31T05:45:21.661Z,1.55
2023-03-31T05:47:48.394Z,1.75
2023-03-31T05:50:15.079Z,1.55
2023-03-31T05:52:41.567Z,1.95
2023-03-31T05:55:08.647Z,1.65
2023-03-31T05:57:35.185Z,2.08
2023-03-31T06:00:02.093Z,1.88
2023-03-31T06:02:28.623Z,1.67
2023-03-31T06:04:58.198Z,2.15
2023-03-31T06:07:27.893Z,2.15
2023-03-31T06:09:55.641Z,1.30
2023-03-31T06:12:22.182Z,2.50
2023-03-31T06:14:48.703Z,1.67
2023-03-31T06:17:15.364Z,1.98
2023-03-31T06:19:41.829Z,1.98
2023-03-31T06:22:08.360Z,2.35
2023-03-31T06:24:34.875Z,2.13
2023-03-31T06:27:01.438Z,2.17
2023-03-31T06:29:28.051Z,1.40
2023-03-31T06:31:57.309Z,1.65
2023-03-31T06:34:25.289Z,1.95
2023-03-31T06:36:51.917Z,2.50
2023-03-31T06:39:18.356Z,2.15
2023-03-31T06:41:44.811Z,2.92
2023-03-31T06:44:11.356Z,1.77
2023-03-31T06:46:37.875Z,1.92
2023-03-31T06:49:04.426Z,2.42
2023-03-31T06:51:32.587Z,2.35
2023-03-31T06:53:59.382Z,2.83
2023-03-31T06:56:27.396Z,1.60
2023-03-31T06:58:56.870Z,2.05
2023-03-31T07:01:27.240Z,2.53
2023-03-31T07:03:57.496Z,2.17
2023-03-31T07:06:27.225Z,2.15
2023-03-31T07:08:57.088Z,2.30
2023-03-31T07:11:25.717Z,2.50
2023-03-31T07:13:52.138Z,2.38
2023-03-31T07:16:18.648Z,2.78
2023-03-31T07:18:45.292Z,2.50
2023-03-31T07:21:12.051Z,2.60
2023-03-31T07:23:38.967Z,1.40
2023-03-31T07:26:06.405Z,2.33
2023-03-31T07:28:33.035Z,1.80
2023-03-31T07:30:59.592Z,2.72
2023-03-31T07:33:26.174Z,2.45
2023-03-31T07:36:08.219Z,2.47
2023-03-31T07:38:38.119Z,2.08
2023-03-31T07:41:09.112Z,2.90
2023-03-31T07:43:36.484Z,2.50
2023-03-31T07:46:03.324Z,3.20
2023-03-31T07:48:30.000Z,2.65
2023-03-31T07:50:56.537Z,2.45
2023-03-31T07:53:23.699Z,2.90
2023-03-31T07:55:50.256Z,3.10
2023-03-31T07:58:16.683Z,3.33
2023-03-31T08:00:43.207Z,2.25
2023-03-31T08:03:09.815Z,2.85
2023-03-31T08:05:36.486Z,1.80
2023-03-31T08:08:03.235Z,3.28
2023-03-31T08:10:29.967Z,3.05
2023-03-31T08:12:56.509Z,2.60
2023-03-31T08:15:25.416Z,2.97
2023-03-31T08:17:52.045Z,2.50
2023-03-31T08:20:18.646Z,2.35
2023-03-31T08:22:45.290Z,3.58
2023-03-31T08:25:11.944Z,2.58
2023-03-31T08:27:40.720Z,3.47
2023-03-31T08:30:09.204Z,2.55
2023-03-31T08:32:36.442Z,3.15
2023-03-31T08:35:04.495Z,2.13
2023-03-31T08:37:32.339Z,2.80
2023-03-31T08:39:58.841Z,2.20
2023-03-31T08:42:37.286Z,2.17
2023-03-31T08:45:26.251Z,2.83
2023-03-31T08:47:59.407Z,2.53
2023-03-31T08:50:30.623Z,2.65
2023-03-31T08:53:04.819Z,2.33
2023-03-31T08:55:49.259Z,2.70
2023-03-31T08:58:36.257Z,2.50
2023-03-31T09:01:44.387Z,2.25
2023-03-31T09:04:47.355Z,1.80
2023-03-31T09:07:37.041Z,2.33
2023-03-31T09:10:09.623Z,2.65
2023-03-31T09:12:50.013Z,2.15
2023-03-31T09:15:42.246Z,2.40
2023-03-31T09:18:35.802Z,2.42
2023-03-31T09:21:05.544Z,2.20
2023-03-31T09:23:37.276Z,2.75
2023-03-31T09:26:04.896Z,3.05
2023-03-31T09:28:39.679Z,1.63
2023-03-31T09:31:16.014Z,1.38
2023-03-31T09:33:45.549Z,1.55
2023-03-31T09:36:18.322Z,2.08
2023-03-31T09:38:46.142Z,1.10
2023-03-31T09:41:14.950Z,1.75
2023-03-31T09:43:42.540Z,1.27
2023-03-31T09:46:33.228Z,2.17
2023-03-31T09:49:05.848Z,1.13
2023-03-31T09:51:37.301Z,0.88
2023-03-31T09:54:45.623Z,0.93
2023-03-31T09:57:33.504Z,0.77
2023-03-31T10:00:17.007Z,0.88
2023-03-31T10:02:45.877Z,0.70
2023-03-31T10:05:29.193Z,0.73
2023-03-31T10:08:14.501Z,0.80
2023-03-31T10:10:46.737Z,0.70
2023-03-31T10:13:18.714Z,0.70
2023-03-31T10:15:45.504Z,1.08
2023-03-31T10:18:17.330Z,1.00
2023-03-31T10:20:49.072Z,1.20
2023-03-31T10:23:22.948Z,1.30
2023-03-31T10:25:50.879Z,1.55
2023-03-31T10:28:19.952Z,1.45
2023-03-31T10:31:02.797Z,1.60
2023-03-31T10:33:35.026Z,1.83
2023-03-31T10:36:14.753Z,2.03
2023-03-31T10:38:46.744Z,2.13
2023-03-31T10:41:19.604Z,1.63
2023-03-31T10:43:56.228Z,2.10
2023-03-31T10:46:41.422Z,2.63
2023-03-31T10:49:26.373Z,2.05
2023-03-31T10:51:59.055Z,2.13
2023-03-31T10:54:29.370Z,2.92
2023-03-31T10:57:03.413Z,2.70
2023-03-31T10:59:46.763Z,2.63
2023-03-31T11:02:50.732Z,2.65
2023-03-31T11:05:40.254Z,2.90
2023-03-31T11:08:15.744Z,2.80
2023-03-31T11:10:53.384Z,2.20
2023-03-31T11:13:47.615Z,2.70
2023-03-31T11:16:42.625Z,2.83
2023-03-31T11:19:38.961Z,2.53
2023-03-31T11:22:30.998Z,2.50
2023-03-31T11:25:27.948Z,2.80
2023-03-31T11:28:21.102Z,3.42
2023-03-31T11:30:53.556Z,2.60
2023-03-31T11:33:28.007Z,2.33
2023-03-31T11:36:30.570Z,2.90
2023-03-31T11:39:08.266Z,2.70
2023-03-31T11:41:39.700Z,1.88
2023-03-31T11:44:11.755Z,2.55
2023-03-31T11:46:48.464Z,2.60
2023-03-31T11:49:19.262Z,2.67
2023-03-31T11:52:01.276Z,1.85
2023-03-31T11:54:39.074Z,3.65
2023-03-31T11:57:16.116Z,2.63
2023-03-31T11:59:44.492Z,2.00
2023-03-31T12:02:19.547Z,1.45
2023-03-31T12:04:53.270Z,1.63
2023-03-31T12:07:38.396Z,1.63
2023-03-31T12:10:19.491Z,2.05
2023-03-31T12:12:51.870Z,1.90
2023-03-31T12:15:21.785Z,1.75
2023-03-31T12:17:59.605Z,2.47
2023-03-31T12:20:32.035Z,2.05
2023-03-31T12:23:02.507Z,2.33
2023-03-31T12:25:42.658Z,1.73
2023-03-31T12:28:11.510Z,2.38
2023-03-31T12:30:43.162Z,2.00
2023-03-31T12:33:15.695Z,1.92
2023-03-31T12:36:19.287Z,2.22
2023-03-31T12:38:58.101Z,2.15
2023-03-31T12:41:34.015Z,1.70
2023-03-31T12:44:03.154Z,1.95
2023-03-31T12:46:32.757Z,1.90
2023-03-31T12:49:11.469Z,1.75
2023-03-31T12:51:41.001Z,1.98
2023-03-31T12:54:38.068Z,2.10
2023-03-31T12:57:15.380Z,1.67
2023-03-31T12:59:43.882Z,2.13
2023-03-31T13:02:10.530Z,1.70
2023-03-31T13:04:38.126Z,2.08
2023-03-31T13:07:25.425Z,1.40
2023-03-31T13:09:59.027Z,1.40
2023-03-31T13:12:31.442Z,1.20
2023-03-31T13:15:03.203Z,1.05
2023-03-31T13:17:36.923Z,1.10
2023-03-31T13:20:29.590Z,1.05
2023-03-31T13:23:25.616Z,0.90
2023-03-31T13:25:54.154Z,1.00
2023-03-31T13:28:23.141Z,1.58
2023-03-31T13:30:51.369Z,1.45
2023-03-31T13:33:23.466Z,1.63
2023-03-31T13:36:12.963Z,1.30
2023-03-31T13:39:26.891Z,1.00
2023-03-31T13:42:33.397Z,1.77
2023-03-31T13:45:08.587Z,0.70
2023-03-31T13:48:03.976Z,1.25
2023-03-31T13:51:05.979Z,1.25
2023-03-31T13:54:06.361Z,1.92
2023-03-31T13:56:53.848Z,2.33
2023-03-31T13:59:28.673Z,2.00
2023-03-31T14:01:58.940Z,1.63
2023-03-31T14:04:36.239Z,1.90
2023-03-31T14:07:08.770Z,1.67
2023-03-31T14:09:43.950Z,1.73
2023-03-31T14:12:38.073Z,1.80
2023-03-31T14:15:06.398Z,2.13
2023-03-31T14:17:40.664Z,2.30
2023-03-31T14:20:26.521Z,1.63
2023-03-31T14:22:57.368Z,2.13
2023-03-31T14:25:47.164Z,1.80
2023-03-31T14:28:29.578Z,1.73
2023-03-31T14:31:20.357Z,1.45
2023-03-31T14:33:52.799Z,1.35
2023-03-31T14:36:47.697Z,1.27
2023-03-31T14:39:21.273Z,2.13
2023-03-31T14:41:55.256Z,2.08
2023-03-31T14:44:22.087Z,1.55
2023-03-31T14:46:48.635Z,1.85
2023-03-31T14:49:18.852Z,1.50
2023-03-31T14:51:45.921Z,1.60
2023-03-31T14:54:19.835Z,1.75
2023-03-31T14:56:54.036Z,1.92
2023-03-31T14:59:37.454Z,1.88
2023-03-31T15:02:05.537Z,1.73
2023-03-31T15:04:45.001Z,1.50
2023-03-31T15:07:13.180Z,2.35
2023-03-31T15:09:41.681Z,1.65
2023-03-31T15:12:15.094Z,1.80
2023-03-31T15:14:47.033Z,1.67
2023-03-31T15:17:29.450Z,1.40
2023-03-31T15:19:58.499Z,2.03
2023-03-31T15:22:27.566Z,2.08
2023-03-31T15:24:54.756Z,2.10
2023-03-31T15:27:44.813Z,1.50
2023-03-31T15:30:18.667Z,0.60
2023-03-31T15:32:45.687Z,0.88
2023-03-31T15:35:25.771Z,1.10
2023-03-31T15:37:56.265Z,0.90
2023-03-31T15:40:25.730Z,0.85
2023-03-31T15:43:13.489Z,1.08
2023-03-31T15:45:47.974Z,1.23
2023-03-31T15:48:35.963Z,2.10
2023-03-31T15:51:12.921Z,0.73
2023-03-31T15:53:51.007Z,1.05
2023-03-31T15:56:35.902Z,0.95
2023-03-31T15:59:07.068Z,1.42
2023-03-31T16:01:46.070Z,0.80
2023-03-31T16:04:14.697Z,1.10
2023-03-31T16:06:55.507Z,0.70
2023-03-31T16:09:29.207Z,0.85
2023-03-31T16:12:03.457Z,1.30
2023-03-31T16:14:37.991Z,1.20
2023-03-31T16:17:22.436Z,0.73
2023-03-31T16:19:58.141Z,0.93
2023-03-31T16:22:36.166Z,1.17
2023-03-31T16:25:12.263Z,1.20
2023-03-31T16:27:49.060Z,1.08
2023-03-31T16:30:54.633Z,0.77
2023-03-31T16:33:25.937Z,1.20
2023-03-31T16:38:54.844Z,1.20
2023-03-31T16:41:23.427Z,1.02
2023-03-31T16:43:52.558Z,1.45
2023-03-31T16:46:19.468Z,1.30
2023-03-31T16:48:46.390Z,1.95
2023-03-31T16:51:13.456Z,1.85
2023-03-31T16:53:40.325Z,1.25
2023-03-31T16:56:08.365Z,1.60
2023-03-31T16:58:36.418Z,1.40
2023-03-31T17:01:07.308Z,1.67
2023-03-31T17:03:36.676Z,1.52
2023-03-31T17:06:11.951Z,1.33
2023-03-31T17:08:39.618Z,1.00
2023-03-31T17:11:10.985Z,1.30
2023-03-31T17:13:41.965Z,0.80
2023-03-31T17:16:20.356Z,1.83
2023-03-31T17:18:53.671Z,1.00
2023-03-31T17:21:20.729Z,0.93
2023-03-31T17:23:53.225Z,0.80
2023-03-31T17:26:20.085Z,0.82
2023-03-31T17:28:46.952Z,0.90
2023-03-31T17:31:21.112Z,1.02
2023-03-31T17:33:51.876Z,0.70
2023-03-31T17:36:18.512Z,0.70
2023-03-31T17:38:45.301Z,0.90
2023-03-31T17:41:13.426Z,1.15
2023-03-31T17:43:43.800Z,1.02
2023-03-31T17:46:13.778Z,1.40
2023-03-31T17:48:41.108Z,0.90
2023-03-31T17:51:12.041Z,1.17
2023-03-31T17:53:39.689Z,1.30
2023-03-31T17:56:06.278Z,1.17
2023-03-31T17:58:35.608Z,1.10
2023-03-31T18:01:07.777Z,1.52
2023-03-31T18:03:34.721Z,1.52
2023-03-31T18:06:11.542Z,1.02
2023-03-31T18:08:38.920Z,1.02
2023-03-31T18:11:07.082Z,0.85
2023-03-31T18:13:38.903Z,0.95
2023-03-31T18:16:08.715Z,1.77
2023-03-31T18:18:36.688Z,1.10
2023-03-31T18:21:11.989Z,1.00
2023-03-31T18:23:39.530Z,1.45
2023-03-31T18:26:07.749Z,1.55
2023-03-31T18:28:34.215Z,1.27
2023-03-31T18:31:05.186Z,1.25
2023-03-31T18:33:37.347Z,1.15
2023-03-31T18:36:08.567Z,1.45
2023-03-31T18:38:37.052Z,1.27
2023-03-31T18:41:07.513Z,1.10
2023-03-31T18:43:34.985Z,1.60
2023-03-31T18:46:04.774Z,1.50
2023-03-31T18:48:35.294Z,2.13
2023-03-31T18:51:04.455Z,1.15
2023-03-31T18:53:34.960Z,2.72
2023-03-31T18:56:01.498Z,2.03
2023-03-31T18:58:30.188Z,1.55
2023-03-31T19:00:58.207Z,1.15
2023-03-31T19:03:26.744Z,1.60
2023-03-31T19:06:05.551Z,1.60
2023-03-31T19:08:33.596Z,1.27
2023-03-31T19:11:07.525Z,1.70
2023-03-31T19:13:38.399Z,1.23
2023-03-31T19:16:07.867Z,1.40
2023-03-31T19:18:36.471Z,1.83
2023-03-31T19:21:04.173Z,1.45
2023-03-31T19:23:31.731Z,2.92
2023-03-31T19:25:59.584Z,1.58
2023-03-31T19:28:27.710Z,1.95
2023-03-31T19:30:56.638Z,1.40
2023-03-31T19:33:24.253Z,1.95
2023-03-31T19:35:51.343Z,1.95
2023-03-31T19:38:18.811Z,2.45
2023-03-31T19:40:45.718Z,1.67
2023-03-31T19:43:20.808Z,2.20
2023-03-31T19:45:53.217Z,2.80
2023-03-31T19:48:20.956Z,1.67
2023-03-31T19:50:51.625Z,2.20
2023-03-31T19:53:19.081Z,2.22
2023-03-31T19:55:58.542Z,1.98
2023-03-31T19:58:26.257Z,2.55
2023-03-31T20:00:54.408Z,1.73
2023-03-31T20:03:22.263Z,2.28
2023-03-31T20:05:48.877Z,2.85
2023-03-31T20:08:16.301Z,1.80
2023-03-31T20:10:42.863Z,2.33
2023-03-31T20:13:10.042Z,2.13
2023-03-31T20:15:41.106Z,2.20
2023-03-31T20:18:07.947Z,2.28
2023-03-31T20:20:38.137Z,1.83
2023-03-31T20:23:09.344Z,2.55
2023-03-31T20:25:38.867Z,2.58
2023-03-31T20:28:08.439Z,2.45
2023-03-31T20:30:38.935Z,1.60
2023-03-31T20:33:08.170Z,2.10
2023-03-31T20:35:36.537Z,3.25
2023-03-31T20:38:03.163Z,1.63
2023-03-31T20:40:29.600Z,2.22
2023-03-31T20:42:56.024Z,1.83
2023-03-31T20:45:22.517Z,1.73
2023-03-31T20:47:49.623Z,1.52
2023-03-31T20:50:16.746Z,1.38
2023-03-31T20:52:47.469Z,1.52
2023-03-31T20:55:14.061Z,1.67
2023-03-31T20:57:41.085Z,1.63
2023-03-31T21:00:11.326Z,1.55
2023-03-31T21:02:38.551Z,1.20
2023-03-31T21:05:08.290Z,1.70
2023-03-31T21:07:34.730Z,1.38
2023-03-31T21:10:01.477Z,1.58
2023-03-31T21:12:27.920Z,1.50
2023-03-31T21:14:54.808Z,1.25
2023-03-31T21:17:21.338Z,1.23
2023-03-31T21:19:47.796Z,1.52
2023-03-31T21:22:14.254Z,1.42
2023-03-31T21:24:40.765Z,1.75
2023-03-31T21:27:10.617Z,1.50
2023-03-31T21:29:39.601Z,1.75
2023-03-31T21:32:09.328Z,1.88
2023-03-31T21:34:36.479Z,1.52
2023-03-31T21:37:03.487Z,1.00
2023-03-31T21:39:30.566Z,1.35
2023-03-31T21:41:57.590Z,1.27
2023-03-31T21:44:24.245Z,1.92
2023-03-31T21:46:52.161Z,1.30
2023-03-31T21:49:19.571Z,1.85
2023-03-31T21:51:46.646Z,2.00
2023-03-31T21:54:13.436Z,1.50
2023-03-31T21:56:40.266Z,1.77
2023-03-31T21:59:09.396Z,1.65
2023-03-31T22:01:35.925Z,1.83
2023-03-31T22:04:02.653Z,1.73
2023-03-31T22:06:29.301Z,1.75
2023-03-31T22:08:56.189Z,1.75
2023-03-31T22:11:23.608Z,1.70
2023-03-31T22:13:50.438Z,3.08
2023-03-31T22:16:22.300Z,1.17
2023-03-31T22:18:50.575Z,1.40
2023-03-31T22:21:26.847Z,1.70
2023-03-31T22:23:56.234Z,1.50
2023-03-31T22:26:23.494Z,1.45
2023-03-31T22:28:50.101Z,1.17
2023-03-31T22:31:16.606Z,1.42
2023-03-31T22:33:43.474Z,1.58
2023-03-31T22:36:13.324Z,1.02
2023-03-31T22:38:42.721Z,1.83
2023-03-31T22:41:11.529Z,1.80
2023-03-31T22:43:37.977Z,1.40
2023-03-31T22:46:06.192Z,1.48
2023-03-31T22:48:33.538Z,1.45
2023-03-31T22:51:06.350Z,1.58
2023-03-31T22:53:33.503Z,1.23
2023-03-31T22:56:05.726Z,1.48
2023-03-31T22:58:32.692Z,1.50
2023-03-31T23:01:00.014Z,2.42
2023-03-31T23:03:27.222Z,1.83
2023-03-31T23:05:54.050Z,2.05
2023-03-31T23:08:20.642Z,1.27
2023-03-31T23:10:58.665Z,2.00
2023-03-31T23:13:25.999Z,1.83
2023-03-31T23:15:52.889Z,1.30
2023-03-31T23:18:19.495Z,1.83
2023-03-31T23:20:45.933Z,1.48
2023-03-31T23:23:15.626Z,2.30
2023-03-31T23:25:45.860Z,2.42
2023-03-31T23:28:16.814Z,1.80
2023-03-31T23:30:52.216Z,1.77
2023-03-31T23:33:18.663Z,1.85
2023-03-31T23:35:45.087Z,1.80
2023-03-31T23:38:14.380Z,1.73
2023-03-31T23:40:40.842Z,2.85
2023-03-31T23:43:07.314Z,2.40
2023-03-31T23:45:33.926Z,1.65
2023-03-31T23:48:00.509Z,2.10
2023-03-31T23:50:28.143Z,1.77
2023-03-31T23:52:55.572Z,1.83
2023-03-31T23:55:22.164Z,2.45
2023-03-31T23:57:48.773Z,2.90
